Time;durP1;ratioP1;P1;durP2;ratioP2;P2;SDS_P1;SDS_P2;PMS_P1;PMS_P2;Temp;Humidity;BMP_temperature;BMP_pressure;BME280_temperature;BME280_humidity;BME280_pressure;Samples;Min_cycle;Max_cycle;Signal;HPM_P1;HPM_P2
2023/05/29 00:01:41;;;;;;;12.90;6.43;;;11.90;58.40;;;;;;5021950;28;20178;-61
2023/05/29 00:04:07;;;;;;;13.07;6.60;;;11.90;57.90;;;;;;5015421;28;20656;-62
2023/05/29 00:06:33;;;;;;;12.70;6.70;;;11.80;58.00;;;;;;5027808;28;20196;-61
2023/05/29 00:08:58;;;;;;;15.37;5.80;;;11.80;58.20;;;;;;5017893;28;20173;-61
2023/05/29 00:11:24;;;;;;;11.67;6.73;;;11.80;58.50;;;;;;5021116;28;20169;-61
2023/05/29 00:13:49;;;;;;;10.43;6.33;;;11.80;58.60;;;;;;5021029;28;20180;-61
2023/05/29 00:16:17;;;;;;;10.50;6.47;;;11.80;58.70;;;;;;5018130;28;20191;-61
2023/05/29 00:18:45;;;;;;;20.70;7.63;;;11.70;59.10;;;;;;5021036;28;20722;-62
2023/05/29 00:21:14;;;;;;;10.17;6.63;;;11.70;59.30;;;;;;5018514;28;20430;-61
2023/05/29 00:23:40;;;;;;;17.97;6.47;;;11.60;59.20;;;;;;5020166;28;20942;-63
2023/05/29 00:26:05;;;;;;;12.27;6.23;;;11.60;59.30;;;;;;5022329;28;20453;-61
2023/05/29 00:28:31;;;;;;;15.10;7.07;;;11.60;59.40;;;;;;5022442;28;20211;-62
2023/05/29 00:30:57;;;;;;;8.90;5.50;;;11.50;59.60;;;;;;5019837;28;20203;-61
2023/05/29 00:33:22;;;;;;;12.53;6.10;;;11.50;59.60;;;;;;5018437;28;20173;-62
2023/05/29 00:35:48;;;;;;;13.93;7.23;;;11.50;60.00;;;;;;5019548;28;20175;-62
2023/05/29 00:38:14;;;;;;;12.20;6.67;;;11.40;60.10;;;;;;5021073;28;20210;-62
2023/05/29 00:40:40;;;;;;;17.50;7.33;;;11.40;60.40;;;;;;5016375;28;20482;-61
2023/05/29 00:43:06;;;;;;;12.40;6.70;;;11.40;60.40;;;;;;5020482;28;20189;-61
2023/05/29 00:45:35;;;;;;;16.33;6.77;;;11.30;60.50;;;;;;5024722;28;20223;-61
2023/05/29 00:48:05;;;;;;;7.87;5.70;;;11.30;60.70;;;;;;5021308;28;20331;-61
2023/05/29 00:50:31;;;;;;;10.53;6.00;;;11.30;60.90;;;;;;5019152;28;20462;-62
2023/05/29 00:52:59;;;;;;;11.77;7.20;;;11.30;61.20;;;;;;5023320;28;20443;-62
2023/05/29 00:55:25;;;;;;;12.33;6.27;;;11.20;61.30;;;;;;5022912;28;20450;-61
2023/05/29 00:57:51;;;;;;;11.57;6.53;;;11.20;61.30;;;;;;5021679;28;20507;-62
2023/05/29 01:00:18;;;;;;;13.60;6.63;;;11.20;61.40;;;;;;5019043;28;20957;-61
2023/05/29 01:02:44;;;;;;;9.80;6.30;;;11.20;61.70;;;;;;5025486;28;20194;-62
2023/05/29 01:05:11;;;;;;;15.63;6.60;;;11.10;62.00;;;;;;5023958;28;20420;-61
2023/05/29 01:07:38;;;;;;;11.97;6.30;;;11.10;62.20;;;;;;5021883;28;20526;-61
2023/05/29 01:10:05;;;;;;;13.17;6.53;;;11.10;62.50;;;;;;5018261;28;20480;-62
2023/05/29 01:13:02;;;;;;;9.93;6.23;;;11.00;62.70;;;;;;5020321;28;20446;-61
2023/05/29 01:15:40;;;;;;;12.23;6.33;;;11.00;63.00;;;;;;5027880;28;20517;-62
2023/05/29 01:18:30;;;;;;;9.83;5.70;;;11.00;63.30;;;;;;5025538;28;20527;-61
2023/05/29 01:21:22;;;;;;;15.70;6.17;;;10.90;63.50;;;;;;5023185;28;20820;-62
2023/05/29 01:23:51;;;;;;;8.37;5.40;;;10.90;63.80;;;;;;5023774;28;20958;-62
2023/05/29 01:26:41;;;;;;;12.03;6.63;;;10.80;64.20;;;;;;5020769;28;20435;-61
2023/05/29 01:29:09;;;;;;;9.70;7.00;;;10.80;64.60;;;;;;5023207;28;20533;-61
2023/05/29 01:31:36;;;;;;;13.30;6.93;;;10.80;65.30;;;;;;5024699;28;20793;-61
2023/05/29 01:34:01;;;;;;;13.10;6.23;;;10.70;65.70;;;;;;5024157;28;20810;-61
2023/05/29 01:36:27;;;;;;;9.80;6.60;;;10.70;65.70;;;;;;5024252;28;21145;-59
2023/05/29 01:38:56;;;;;;;10.63;6.80;;;10.60;66.00;;;;;;5024875;28;20176;-61
2023/05/29 01:41:23;;;;;;;11.70;6.93;;;10.60;66.10;;;;;;5024161;28;20171;-61
2023/05/29 01:43:49;;;;;;;12.43;6.70;;;10.60;66.30;;;;;;5024582;28;20462;-60
2023/05/29 01:46:16;;;;;;;13.43;7.00;;;10.50;66.90;;;;;;5023694;28;20653;-61
2023/05/29 01:48:42;;;;;;;12.17;6.70;;;10.50;67.30;;;;;;5022477;28;20457;-61
2023/05/29 01:51:09;;;;;;;11.70;6.50;;;10.50;67.40;;;;;;5027043;28;20434;-61
2023/05/29 01:53:34;;;;;;;9.20;6.30;;;10.40;67.50;;;;;;5018923;28;20482;-61
2023/05/29 01:56:00;;;;;;;16.10;7.10;;;10.40;68.00;;;;;;5026092;28;20539;-62
2023/05/29 01:58:27;;;;;;;12.83;6.90;;;10.40;68.30;;;;;;5020209;28;20231;-60
2023/05/29 02:00:54;;;;;;;11.90;6.47;;;10.30;69.20;;;;;;5024367;28;20192;-61
2023/05/29 02:03:20;;;;;;;12.50;6.80;;;10.20;70.00;;;;;;5026023;28;20407;-61
2023/05/29 02:05:46;;;;;;;9.57;6.27;;;10.20;70.30;;;;;;5025695;28;20426;-61
2023/05/29 02:08:12;;;;;;;12.63;6.87;;;10.20;71.20;;;;;;5028518;28;20434;-61
2023/05/29 02:10:37;;;;;;;13.20;7.07;;;10.10;71.10;;;;;;5017747;28;20250;-61
2023/05/29 02:13:03;;;;;;;20.00;7.50;;;10.10;71.30;;;;;;5027053;28;20184;-61
2023/05/29 02:15:29;;;;;;;12.37;6.57;;;10.10;71.80;;;;;;5039886;28;20622;-61
2023/05/29 02:17:55;;;;;;;11.70;6.20;;;10.10;72.10;;;;;;5028787;28;20191;-62
2023/05/29 02:20:21;;;;;;;11.83;7.10;;;10.10;72.80;;;;;;5026302;28;20199;-61
2023/05/29 02:22:46;;;;;;;13.73;6.53;;;10.00;72.70;;;;;;5024777;28;20607;-61
2023/05/29 02:25:12;;;;;;;18.67;6.63;;;10.10;73.30;;;;;;5029524;28;20537;-62
2023/05/29 02:27:37;;;;;;;14.13;7.47;;;10.00;73.50;;;;;;5021661;28;20180;-61
2023/05/29 02:30:05;;;;;;;17.13;6.67;;;10.00;74.30;;;;;;5022878;28;20195;-61
2023/05/29 02:32:31;;;;;;;12.83;6.47;;;10.00;74.90;;;;;;5028459;28;20181;-62
2023/05/29 02:34:57;;;;;;;11.87;6.70;;;10.00;76.00;;;;;;5019558;28;21018;-62
2023/05/29 02:37:25;;;;;;;11.43;6.97;;;10.00;76.50;;;;;;5024519;28;20454;-61
2023/05/29 02:39:51;;;;;;;9.40;6.20;;;10.00;76.30;;;;;;5028164;28;20451;-62
2023/05/29 02:42:17;;;;;;;13.83;7.00;;;9.90;77.50;;;;;;5023875;28;20430;-61
2023/05/29 02:44:42;;;;;;;11.33;6.63;;;9.90;78.20;;;;;;5026818;28;20442;-61
2023/05/29 02:47:08;;;;;;;18.50;6.83;;;9.90;78.60;;;;;;5026587;28;20184;-61
2023/05/29 02:49:33;;;;;;;12.23;6.97;;;9.80;79.70;;;;;;5023664;28;20204;-61
2023/05/29 02:51:59;;;;;;;10.40;6.07;;;9.80;79.70;;;;;;5022841;28;20246;-61
2023/05/29 02:54:25;;;;;;;12.70;6.70;;;9.70;80.30;;;;;;5028979;28;20214;-61
2023/05/29 02:56:51;;;;;;;15.10;6.47;;;9.70;81.00;;;;;;5023616;28;20718;-61
2023/05/29 02:59:17;;;;;;;15.17;7.17;;;9.60;82.00;;;;;;5024510;28;20611;-61
2023/05/29 03:01:43;;;;;;;22.33;7.93;;;9.50;83.10;;;;;;5020829;28;20525;-62
2023/05/29 03:04:10;;;;;;;15.13;7.07;;;9.50;84.80;;;;;;5018115;28;20172;-61
2023/05/29 03:06:38;;;;;;;13.90;7.10;;;9.50;85.40;;;;;;5024891;28;20253;-61
2023/05/29 03:09:07;;;;;;;13.50;7.20;;;9.40;85.90;;;;;;5021703;28;20955;-62
2023/05/29 03:11:35;;;;;;;11.60;7.17;;;9.40;86.80;;;;;;5018322;28;20432;-61
2023/05/29 03:14:01;;;;;;;12.60;6.70;;;9.40;87.30;;;;;;5025009;28;20450;-61
2023/05/29 03:16:29;;;;;;;10.50;6.23;;;9.30;88.10;;;;;;5024042;28;20468;-61
2023/05/29 03:18:54;;;;;;;16.63;7.17;;;9.30;89.50;;;;;;5018831;28;20858;-61
2023/05/29 03:21:21;;;;;;;15.10;6.60;;;9.30;89.90;;;;;;5023323;28;20545;-61
2023/05/29 03:23:47;;;;;;;14.10;7.50;;;9.20;90.20;;;;;;5024880;28;20199;-61
2023/05/29 03:26:13;;;;;;;12.00;7.70;;;9.20;90.40;;;;;;5020915;28;20464;-61
2023/05/29 03:28:39;;;;;;;12.40;6.53;;;9.20;90.40;;;;;;5019561;28;20183;-61
2023/05/29 03:31:04;;;;;;;13.83;7.80;;;9.20;90.90;;;;;;5026213;28;20443;-61
2023/05/29 03:33:30;;;;;;;12.27;6.33;;;9.20;91.20;;;;;;5021920;28;20428;-61
2023/05/29 03:35:56;;;;;;;13.70;6.73;;;9.10;91.70;;;;;;5019027;28;20191;-61
2023/05/29 03:38:23;;;;;;;12.73;7.60;;;9.10;92.40;;;;;;5019141;28;20232;-61
2023/05/29 03:40:48;;;;;;;11.57;6.63;;;9.10;92.30;;;;;;5021213;28;20188;-61
2023/05/29 03:43:14;;;;;;;11.63;6.50;;;9.10;92.30;;;;;;5022976;28;20422;-61
2023/05/29 03:45:40;;;;;;;10.90;6.60;;;9.10;92.80;;;;;;5025593;28;20188;-61
2023/05/29 03:48:05;;;;;;;13.57;7.37;;;9.10;93.30;;;;;;5026817;28;20211;-61
2023/05/29 03:50:31;;;;;;;12.70;7.40;;;9.00;93.70;;;;;;5021093;28;20253;-61
2023/05/29 03:52:56;;;;;;;10.90;6.70;;;9.00;94.20;;;;;;5023919;28;20207;-61
2023/05/29 03:55:22;;;;;;;12.50;7.33;;;9.00;94.40;;;;;;5034213;28;20253;-61
2023/05/29 03:57:48;;;;;;;10.63;6.30;;;9.00;94.60;;;;;;5024034;28;20206;-62
2023/05/29 04:00:14;;;;;;;16.60;6.87;;;9.00;94.70;;;;;;5020602;28;20204;-61
2023/05/29 04:02:41;;;;;;;13.63;6.30;;;9.00;94.70;;;;;;5021483;28;20215;-61
2023/05/29 04:05:08;;;;;;;11.40;6.63;;;9.00;94.60;;;;;;5023952;28;20422;-62
2023/05/29 04:07:36;;;;;;;12.33;6.60;;;9.00;94.20;;;;;;5023779;28;20979;-61
2023/05/29 04:10:02;;;;;;;19.30;7.53;;;9.00;93.90;;;;;;5021322;28;20477;-61
2023/05/29 04:12:28;;;;;;;12.00;6.80;;;9.00;93.90;;;;;;5014092;28;20432;-61
2023/05/29 04:14:54;;;;;;;13.67;6.83;;;9.00;94.30;;;;;;5018335;28;20990;-61
2023/05/29 04:17:19;;;;;;;16.43;6.60;;;9.00;93.80;;;;;;5032182;28;20219;-61
2023/05/29 04:19:45;;;;;;;12.03;6.57;;;9.00;94.30;;;;;;5022204;28;20389;-61
2023/05/29 04:22:11;;;;;;;12.63;6.57;;;9.00;94.30;;;;;;5018441;28;20179;-61
2023/05/29 04:24:36;;;;;;;11.90;6.73;;;9.00;94.60;;;;;;5024914;28;20226;-61
2023/05/29 04:27:02;;;;;;;11.57;6.80;;;9.10;94.80;;;;;;5021778;28;20195;-61
2023/05/29 04:29:32;;;;;;;10.60;6.20;;;9.10;94.80;;;;;;5016437;28;20228;-61
2023/05/29 04:31:57;;;;;;;12.57;6.83;;;9.10;94.10;;;;;;5023344;28;20249;-62
2023/05/29 04:34:23;;;;;;;12.37;6.43;;;9.10;93.90;;;;;;5025188;28;20973;-61
2023/05/29 04:36:49;;;;;;;13.93;7.33;;;9.10;93.90;;;;;;5021797;28;20199;-61
2023/05/29 04:39:15;;;;;;;11.90;7.10;;;9.20;93.90;;;;;;5025061;28;20259;-61
2023/05/29 04:41:41;;;;;;;11.57;6.70;;;9.20;93.70;;;;;;5024191;28;21030;-61
2023/05/29 04:44:08;;;;;;;11.53;7.07;;;9.20;93.50;;;;;;5023788;28;20196;-61
2023/05/29 04:46:34;;;;;;;12.90;6.60;;;9.30;93.40;;;;;;5026685;28;20426;-61
2023/05/29 04:49:02;;;;;;;13.70;6.80;;;9.30;93.00;;;;;;5024160;28;20947;-61
2023/05/29 04:51:28;;;;;;;12.27;7.93;;;9.40;92.90;;;;;;5027970;28;21219;-61
2023/05/29 04:53:54;;;;;;;15.23;6.63;;;9.50;93.10;;;;;;5022984;28;20447;-60
2023/05/29 04:56:20;;;;;;;9.60;6.40;;;9.50;92.90;;;;;;5026468;28;20186;-62
2023/05/29 04:58:46;;;;;;;10.53;6.80;;;9.60;92.50;;;;;;5020676;28;20515;-60
2023/05/29 05:01:14;;;;;;;12.37;6.73;;;9.70;93.30;;;;;;5017459;28;20996;-61
2023/05/29 05:03:40;;;;;;;10.90;6.80;;;9.80;93.70;;;;;;5025347;28;20169;-60
2023/05/29 05:06:07;;;;;;;16.67;6.93;;;9.80;92.60;;;;;;5019816;28;20743;-61
2023/05/29 05:08:33;;;;;;;11.47;6.60;;;9.90;92.50;;;;;;5029492;28;20935;-61
2023/05/29 05:11:00;;;;;;;14.83;7.37;;;10.00;90.30;;;;;;5026941;28;20513;-60
2023/05/29 05:13:26;;;;;;;11.10;6.83;;;10.00;88.10;;;;;;5027540;28;20434;-61
2023/05/29 05:15:52;;;;;;;11.73;8.00;;;10.00;87.80;;;;;;5024427;28;20422;-61
2023/05/29 05:18:18;;;;;;;11.07;6.23;;;10.10;87.30;;;;;;5021040;28;20331;-61
2023/05/29 05:20:43;;;;;;;13.00;7.40;;;10.10;87.10;;;;;;5027621;28;20488;-61
2023/05/29 05:23:10;;;;;;;14.23;7.50;;;10.10;90.00;;;;;;5023204;28;20225;-61
2023/05/29 05:25:36;;;;;;;18.20;7.90;;;10.20;91.20;;;;;;5025099;28;20183;-61
2023/05/29 05:28:03;;;;;;;16.17;7.40;;;10.30;91.30;;;;;;5021994;28;20466;-61
2023/05/29 05:30:29;;;;;;;13.60;7.27;;;10.40;90.90;;;;;;5114007;23;21004;-55
2023/05/29 05:32:55;;;;;;;14.40;6.37;;;10.50;90.80;;;;;;4990587;28;20442;-54
2023/05/29 05:35:20;;;;;;;11.70;6.73;;;10.60;89.80;;;;;;4987966;28;20177;-55
2023/05/29 05:37:46;;;;;;;13.67;7.60;;;10.70;90.00;;;;;;4988801;28;20469;-56
2023/05/29 05:40:12;;;;;;;11.90;6.53;;;10.80;90.30;;;;;;4987769;28;20197;-54
2023/05/29 05:42:38;;;;;;;10.07;6.53;;;11.00;89.40;;;;;;4986032;28;20561;-54
2023/05/29 05:45:04;;;;;;;11.50;6.37;;;11.10;86.10;;;;;;4991794;28;20424;-55
2023/05/29 05:47:30;;;;;;;13.50;6.93;;;11.20;85.70;;;;;;4990000;28;20673;-56
2023/05/29 05:49:55;;;;;;;12.97;8.03;;;11.30;85.50;;;;;;4987931;28;20455;-55
2023/05/29 05:52:22;;;;;;;12.70;7.47;;;11.40;81.90;;;;;;4986711;28;20178;-54
2023/05/29 05:54:47;;;;;;;12.43;6.90;;;11.40;80.40;;;;;;4989681;28;20188;-54
2023/05/29 05:57:13;;;;;;;18.40;6.30;;;11.50;78.50;;;;;;4985052;28;20456;-56
2023/05/29 05:59:39;;;;;;;13.00;7.20;;;11.60;78.50;;;;;;4987045;28;20616;-54
2023/05/29 06:02:04;;;;;;;14.20;6.73;;;11.70;80.50;;;;;;4988517;28;20183;-55
2023/05/29 06:04:30;;;;;;;11.70;6.93;;;11.80;79.20;;;;;;4985929;28;20341;-52
2023/05/29 06:06:56;;;;;;;16.90;7.70;;;11.90;80.10;;;;;;4987155;28;20219;-54
2023/05/29 06:09:22;;;;;;;16.80;7.00;;;12.00;80.80;;;;;;4986914;28;20197;-55
2023/05/29 06:11:47;;;;;;;15.47;7.10;;;12.10;79.80;;;;;;4989441;28;20455;-56
2023/05/29 06:14:14;;;;;;;12.27;8.03;;;12.20;79.30;;;;;;4985960;28;20198;-55
2023/05/29 06:16:40;;;;;;;11.27;6.20;;;12.40;79.10;;;;;;4987351;28;20205;-56
2023/05/29 06:19:05;;;;;;;17.37;7.70;;;12.40;77.30;;;;;;4983617;28;20464;-53
2023/05/29 06:21:32;;;;;;;12.20;8.00;;;12.50;77.60;;;;;;4988034;28;20181;-55
2023/05/29 06:23:57;;;;;;;16.93;7.53;;;12.60;78.20;;;;;;4988133;28;20200;-54
2023/05/29 06:26:26;;;;;;;13.93;7.57;;;12.70;77.80;;;;;;4993742;28;20526;-55
2023/05/29 06:28:52;;;;;;;10.10;6.30;;;12.90;77.00;;;;;;4994548;28;20216;-54
2023/05/29 06:31:18;;;;;;;11.67;6.70;;;13.00;77.50;;;;;;4994130;28;20444;-57
2023/05/29 06:33:45;;;;;;;14.73;6.80;;;13.20;79.20;;;;;;4993100;28;20428;-56
2023/05/29 06:36:11;;;;;;;16.57;7.83;;;13.40;76.50;;;;;;4985044;28;20185;-54
2023/05/29 06:38:37;;;;;;;13.13;7.33;;;13.50;75.30;;;;;;4983311;28;20464;-55
2023/05/29 06:41:02;;;;;;;12.03;7.00;;;13.70;73.80;;;;;;4986175;28;20197;-54
2023/05/29 06:43:28;;;;;;;14.73;7.47;;;13.80;72.90;;;;;;4987860;28;20504;-55
2023/05/29 06:45:54;;;;;;;11.33;7.00;;;14.00;71.50;;;;;;4988221;28;20196;-56
2023/05/29 06:48:20;;;;;;;15.17;6.80;;;14.10;69.60;;;;;;4982888;28;20519;-54
2023/05/29 06:50:47;;;;;;;11.13;7.00;;;14.30;68.60;;;;;;4986362;28;20256;-55
2023/05/29 06:53:13;;;;;;;10.00;6.00;;;14.40;68.30;;;;;;4984372;28;20432;-56
2023/05/29 06:55:40;;;;;;;12.83;7.30;;;14.50;68.10;;;;;;4988012;28;20925;-54
2023/05/29 06:58:06;;;;;;;13.00;6.90;;;14.70;68.50;;;;;;4984781;28;20205;-55
2023/05/29 07:00:32;;;;;;;11.13;6.27;;;14.80;68.10;;;;;;4987196;28;20623;-55
2023/05/29 07:02:57;;;;;;;13.43;6.87;;;15.00;67.80;;;;;;4986686;28;20188;-56
2023/05/29 07:05:23;;;;;;;15.83;7.30;;;15.10;67.00;;;;;;4986280;28;20174;-54
2023/05/29 07:07:49;;;;;;;13.77;6.10;;;15.20;65.20;;;;;;4982952;28;20173;-55
2023/05/29 07:10:15;;;;;;;11.50;5.63;;;15.30;64.20;;;;;;4986369;28;20704;-55
2023/05/29 07:12:40;;;;;;;13.37;6.70;;;15.50;62.90;;;;;;4985495;28;20181;-54
2023/05/29 07:15:06;;;;;;;10.97;6.40;;;15.60;62.30;;;;;;4984266;28;20193;-56
2023/05/29 07:17:32;;;;;;;12.80;5.87;;;15.80;61.70;;;;;;4978181;28;20205;-55
2023/05/29 07:19:58;;;;;;;9.60;5.60;;;15.90;61.70;;;;;;4983513;28;20519;-56
2023/05/29 07:22:24;;;;;;;9.80;5.07;;;16.10;61.00;;;;;;4983747;28;20613;-55
2023/05/29 07:24:50;;;;;;;11.33;6.00;;;16.20;60.60;;;;;;4983053;28;20181;-54
2023/05/29 07:27:15;;;;;;;11.10;6.67;;;16.40;60.40;;;;;;4984824;28;20432;-54
2023/05/29 07:29:41;;;;;;;9.70;6.00;;;16.60;60.60;;;;;;4984332;28;20205;-54
2023/05/29 07:32:06;;;;;;;8.90;5.53;;;16.70;60.50;;;;;;4985177;28;20568;-55
2023/05/29 07:34:32;;;;;;;11.10;6.20;;;16.90;60.40;;;;;;4987977;28;20268;-57
2023/05/29 07:37:02;;;;;;;20.43;5.80;;;17.00;60.00;;;;;;4984617;28;20193;-54
2023/05/29 07:39:28;;;;;;;12.67;6.07;;;17.30;59.40;;;;;;4974908;28;20204;-55
2023/05/29 07:41:54;;;;;;;14.03;7.40;;;17.40;58.00;;;;;;4986399;28;20698;-55
2023/05/29 07:44:19;;;;;;;11.57;5.83;;;17.50;57.30;;;;;;4983017;28;21004;-55
2023/05/29 07:46:45;;;;;;;11.20;5.70;;;17.70;57.30;;;;;;4984031;28;20193;-57
2023/05/29 07:49:11;;;;;;;7.77;4.93;;;17.80;57.10;;;;;;4980942;28;20204;-56
2023/05/29 07:51:37;;;;;;;12.60;6.00;;;18.00;56.60;;;;;;4980711;28;20490;-55
2023/05/29 07:54:03;;;;;;;10.23;5.23;;;18.10;56.10;;;;;;4984379;28;20642;-55
2023/05/29 07:56:29;;;;;;;10.77;5.60;;;18.30;55.80;;;;;;4984081;28;20452;-53
2023/05/29 07:58:54;;;;;;;9.80;5.20;;;18.40;55.50;;;;;;4981576;28;20189;-55
2023/05/29 08:01:23;;;;;;;8.97;5.43;;;18.50;55.10;;;;;;4974371;28;20192;-52
2023/05/29 08:03:49;;;;;;;11.17;6.00;;;18.60;55.10;;;;;;4982141;28;20622;-59
2023/05/29 08:06:15;;;;;;;10.47;4.80;;;18.80;52.90;;;;;;4983571;28;20468;-55
2023/05/29 08:08:41;;;;;;;9.70;5.80;;;18.90;52.40;;;;;;4977137;28;20268;-55
2023/05/29 08:11:07;;;;;;;10.17;5.57;;;19.00;51.90;;;;;;4969175;28;20267;-54
2023/05/29 08:13:32;;;;;;;8.77;5.10;;;19.10;53.00;;;;;;4978499;28;20444;-55
2023/05/29 08:15:58;;;;;;;8.17;5.37;;;19.30;52.80;;;;;;4981701;28;20185;-55
2023/05/29 08:18:26;;;;;;;10.50;5.50;;;19.40;52.00;;;;;;4982457;28;20208;-55
2023/05/29 08:20:52;;;;;;;8.80;5.23;;;19.60;50.30;;;;;;4980880;28;20201;-56
2023/05/29 08:23:18;;;;;;;6.80;4.80;;;19.70;50.50;;;;;;4979152;28;20428;-54
2023/05/29 08:25:44;;;;;;;15.40;5.60;;;19.80;50.30;;;;;;4978692;28;20204;-52
2023/05/29 08:28:10;;;;;;;8.43;5.17;;;19.90;49.40;;;;;;4982936;28;20953;-54
2023/05/29 08:30:37;;;;;;;9.53;5.00;;;20.00;49.40;;;;;;4979694;28;20503;-55
2023/05/29 08:33:03;;;;;;;9.50;5.37;;;20.00;48.10;;;;;;4980294;28;20191;-54
2023/05/29 08:35:29;;;;;;;9.27;5.67;;;20.10;48.00;;;;;;4978642;28;20468;-56
2023/05/29 08:37:54;;;;;;;10.07;5.40;;;20.20;47.40;;;;;;4983544;28;20895;-55
2023/05/29 08:40:20;;;;;;;8.87;4.83;;;20.30;48.30;;;;;;4976479;28;20460;-56
2023/05/29 08:43:07;;;;;;;8.70;5.40;;;20.40;48.70;;;;;;4985587;28;20235;-55
2023/05/29 08:45:37;;;;;;;10.50;5.37;;;20.40;48.80;;;;;;4976918;28;20185;-55
2023/05/29 08:48:03;;;;;;;10.50;5.80;;;20.50;48.60;;;;;;4979245;28;20444;-55
2023/05/29 08:50:29;;;;;;;14.90;6.20;;;20.60;47.80;;;;;;4972713;28;20511;-57
2023/05/29 08:52:56;;;;;;;9.27;6.07;;;20.70;47.90;;;;;;4971353;28;20451;-55
2023/05/29 08:55:22;;;;;;;11.80;5.97;;;20.80;47.20;;;;;;4973624;28;20196;-58
2023/05/29 08:57:48;;;;;;;10.80;5.33;;;20.80;47.20;;;;;;4975681;28;20464;-57
2023/05/29 09:00:18;;;;;;;11.97;5.93;;;20.90;47.20;;;;;;4980832;28;20229;-54
2023/05/29 09:02:44;;;;;;;14.43;6.10;;;20.90;46.80;;;;;;4978699;28;20440;-56
2023/05/29 09:05:10;;;;;;;10.27;5.30;;;20.90;46.80;;;;;;4981839;28;20440;-55
2023/05/29 09:07:40;;;;;;;8.33;4.70;;;21.00;47.10;;;;;;4983647;28;20696;-55
2023/05/29 09:10:08;;;;;;;14.53;5.80;;;21.10;46.30;;;;;;4981427;28;20463;-55
2023/05/29 09:12:34;;;;;;;8.53;5.47;;;21.10;45.80;;;;;;4982733;28;20451;-55
2023/05/29 09:15:01;;;;;;;12.53;5.53;;;21.10;45.50;;;;;;4986144;28;20455;-56
2023/05/29 09:17:34;;;;;;;10.30;5.70;;;21.20;44.80;;;;;;4982139;28;20555;-55
2023/05/29 09:20:00;;;;;;;10.27;5.10;;;21.30;44.60;;;;;;4978255;28;20464;-55
2023/05/29 09:22:26;;;;;;;11.93;5.97;;;21.40;44.70;;;;;;4981845;28;20428;-56
2023/05/29 09:24:52;;;;;;;6.77;4.50;;;21.40;43.70;;;;;;4985427;28;20434;-55
2023/05/29 09:27:18;;;;;;;8.03;5.50;;;21.50;43.00;;;;;;4979262;28;20174;-54
2023/05/29 09:29:45;;;;;;;19.57;6.50;;;21.60;42.80;;;;;;4986105;28;20921;-54
2023/05/29 09:32:18;;;;;;;10.73;5.23;;;21.70;42.80;;;;;;4979300;28;20444;-56
2023/05/29 09:34:45;;;;;;;9.77;5.30;;;21.80;43.50;;;;;;4985612;28;20436;-58
2023/05/29 09:37:12;;;;;;;8.10;5.40;;;21.80;43.60;;;;;;4983975;28;20483;-55
2023/05/29 09:39:48;;;;;;;8.97;4.70;;;21.90;42.90;;;;;;4980725;28;20463;-54
2023/05/29 09:42:15;;;;;;;8.70;5.13;;;22.10;42.50;;;;;;4967634;28;20988;-55
2023/05/29 09:44:42;;;;;;;16.80;5.13;;;22.20;41.20;;;;;;4977248;28;20464;-55
2023/05/29 09:47:08;;;;;;;9.53;4.83;;;22.20;40.40;;;;;;4978676;28;20448;-57
2023/05/29 09:49:34;;;;;;;10.30;4.83;;;22.30;40.40;;;;;;4981850;28;20465;-57
2023/05/29 09:52:00;;;;;;;12.83;5.10;;;22.30;39.70;;;;;;4977821;28;20459;-58
2023/05/29 09:54:30;;;;;;;8.93;5.53;;;22.40;40.70;;;;;;4976371;28;20598;-56
2023/05/29 09:56:58;;;;;;;9.67;5.30;;;22.50;40.50;;;;;;4981720;28;21259;-56
2023/05/29 09:59:24;;;;;;;13.80;5.40;;;22.60;40.10;;;;;;4978515;28;21230;-58
2023/05/29 10:02:02;;;;;;;8.97;5.00;;;22.60;39.60;;;;;;4978330;28;20432;-53
2023/05/29 10:04:29;;;;;;;10.27;5.30;;;22.70;39.80;;;;;;4985472;28;20964;-55
2023/05/29 10:06:57;;;;;;;9.07;4.90;;;22.70;39.60;;;;;;4987039;28;20437;-58
2023/05/29 10:09:26;;;;;;;14.10;5.27;;;22.80;39.10;;;;;;4980335;28;20524;-55
2023/05/29 10:11:55;;;;;;;5.47;4.40;;;22.90;39.30;;;;;;4980374;28;20564;-57
2023/05/29 10:14:22;;;;;;;9.77;5.30;;;23.00;39.50;;;;;;4981974;28;20448;-55
2023/05/29 10:16:50;;;;;;;8.33;4.97;;;23.10;40.00;;;;;;4978812;28;20464;-55
2023/05/29 10:19:26;;;;;;;13.17;6.27;;;23.10;39.20;;;;;;4987754;28;20459;-56
2023/05/29 10:21:53;;;;;;;13.43;5.73;;;23.20;40.90;;;;;;4982090;28;20513;-57
2023/05/29 10:24:20;;;;;;;9.90;6.10;;;23.30;40.70;;;;;;4982718;28;20452;-59
2023/05/29 10:26:49;;;;;;;7.20;4.63;;;23.30;39.20;;;;;;4975845;28;20486;-54
2023/05/29 10:29:15;;;;;;;8.67;5.27;;;23.40;39.90;;;;;;4976479;28;20499;-57
2023/05/29 10:32:26;;;;;;;7.10;4.70;;;23.40;40.30;;;;;;4980106;28;20439;-56
2023/05/29 10:35:04;;;;;;;7.13;4.53;;;23.50;39.60;;;;;;4977376;28;20205;-56
2023/05/29 10:37:57;;;;;;;8.60;4.80;;;23.70;39.80;;;;;;4966057;28;20708;-55
2023/05/29 10:40:27;;;;;;;7.07;4.97;;;23.70;38.50;;;;;;4969079;28;20460;-56
2023/05/29 10:42:57;;;;;;;6.87;4.97;;;23.80;39.80;;;;;;4981222;28;20972;-54
2023/05/29 10:45:29;;;;;;;7.03;4.77;;;23.80;39.00;;;;;;4979070;28;20939;-58
2023/05/29 10:47:55;;;;;;;11.60;5.57;;;23.90;38.30;;;;;;4978299;28;21307;-52
2023/05/29 10:50:44;;;;;;;8.43;4.70;;;24.00;38.10;;;;;;4974642;28;20472;-55
2023/05/29 10:53:14;;;;;;;6.30;4.30;;;24.00;38.50;;;;;;4975644;28;21020;-52
2023/05/29 10:55:41;;;;;;;7.60;4.90;;;24.00;38.20;;;;;;4968360;28;20470;-55
2023/05/29 10:58:06;;;;;;;7.87;5.07;;;24.10;38.20;;;;;;4984846;28;20470;-58
2023/05/29 11:00:33;;;;;;;6.50;5.10;;;24.10;36.90;;;;;;4981984;28;20459;-55
2023/05/29 11:03:06;;;;;;;6.43;4.20;;;24.20;37.20;;;;;;4974704;28;20178;-55
2023/05/29 11:05:32;;;;;;;12.73;5.40;;;24.30;38.00;;;;;;4982933;28;20448;-55
2023/05/29 11:08:06;;;;;;;7.63;4.70;;;24.40;37.70;;;;;;4986308;28;20438;-58
2023/05/29 11:11:06;;;;;;;8.73;5.47;;;24.40;36.30;;;;;;4982287;28;20215;-57
2023/05/29 11:13:36;;;;;;;10.23;4.77;;;24.50;38.00;;;;;;4974929;28;20460;-56
2023/05/29 11:16:28;;;;;;;8.97;4.77;;;24.60;38.60;;;;;;4983845;28;20423;-58
2023/05/29 11:18:56;;;;;;;9.17;4.90;;;24.70;38.00;;;;;;4972997;28;20836;-57
2023/05/29 11:21:33;;;;;;;11.10;4.90;;;24.80;36.90;;;;;;4977728;28;20438;-55
2023/05/29 11:24:02;;;;;;;8.77;4.83;;;24.90;36.80;;;;;;4974789;28;21083;-59
2023/05/29 11:26:30;;;;;;;6.30;4.90;;;25.00;37.20;;;;;;4974983;28;20896;-56
2023/05/29 11:29:00;;;;;;;10.13;4.13;;;25.10;37.60;;;;;;4972516;28;20435;-56
2023/05/29 11:31:28;;;;;;;6.23;4.47;;;25.20;37.20;;;;;;4975909;28;20496;-59
2023/05/29 11:33:58;;;;;;;6.80;4.60;;;25.30;37.80;;;;;;4970205;28;20427;-58
2023/05/29 11:36:23;;;;;;;5.10;3.93;;;25.40;36.40;;;;;;4977835;28;20533;-55
2023/05/29 11:38:51;;;;;;;11.20;5.03;;;25.40;37.30;;;;;;4977759;28;21053;-55
2023/05/29 11:41:17;;;;;;;9.23;5.43;;;25.50;36.50;;;;;;4970764;28;20184;-54
2023/05/29 11:43:43;;;;;;;7.20;4.90;;;25.60;37.50;;;;;;4982047;28;20423;-56
2023/05/29 11:46:19;;;;;;;6.57;4.37;;;25.70;37.30;;;;;;4980642;28;20518;-59
2023/05/29 11:48:46;;;;;;;8.80;5.10;;;25.80;36.80;;;;;;4978675;28;20645;-56
2023/05/29 11:51:12;;;;;;;7.53;4.60;;;25.80;36.60;;;;;;4982661;28;20434;-55
2023/05/29 11:53:42;;;;;;;5.10;3.80;;;25.90;36.70;;;;;;4979079;28;20424;-57
2023/05/29 11:56:10;;;;;;;8.97;4.77;;;25.90;35.60;;;;;;4981935;28;20169;-59
2023/05/29 11:58:37;;;;;;;8.97;4.87;;;26.00;36.40;;;;;;4982083;28;20451;-56
2023/05/29 12:01:03;;;;;;;7.90;4.13;;;26.10;36.50;;;;;;4985057;28;20459;-56
2023/05/29 12:03:29;;;;;;;9.47;4.20;;;26.20;36.60;;;;;;4986538;28;20432;-56
2023/05/29 12:05:55;;;;;;;5.13;4.03;;;26.30;37.20;;;;;;4987017;28;20760;-55
2023/05/29 12:08:25;;;;;;;5.70;4.40;;;26.40;36.60;;;;;;4986078;28;20202;-57
2023/05/29 12:10:52;;;;;;;12.50;4.10;;;26.50;35.80;;;;;;4982426;28;20454;-56
2023/05/29 12:13:22;;;;;;;5.27;4.10;;;26.60;34.00;;;;;;4981492;28;20431;-56
2023/05/29 12:15:49;;;;;;;6.57;3.70;;;26.70;34.60;;;;;;4976258;28;20514;-56
2023/05/29 12:18:15;;;;;;;10.70;4.50;;;26.80;36.40;;;;;;4984575;28;20495;-55
2023/05/29 12:20:41;;;;;;;8.33;4.07;;;26.90;35.30;;;;;;4986003;28;21026;-56
2023/05/29 12:23:06;;;;;;;9.63;4.40;;;26.90;34.80;;;;;;4985999;28;20439;-56
2023/05/29 12:25:36;;;;;;;4.40;3.60;;;27.10;34.90;;;;;;4983680;28;20181;-58
2023/05/29 12:28:02;;;;;;;9.97;4.20;;;27.10;34.50;;;;;;4984251;28;20180;-56
2023/05/29 12:30:28;;;;;;;10.70;5.10;;;27.20;33.90;;;;;;4985601;28;20219;-56
2023/05/29 12:32:53;;;;;;;6.93;4.00;;;27.40;34.10;;;;;;4984559;28;20177;-58
2023/05/29 12:35:27;;;;;;;10.37;4.43;;;27.50;34.30;;;;;;4987542;28;20620;-57
2023/05/29 12:37:57;;;;;;;7.10;3.80;;;27.70;33.70;;;;;;4988655;28;20224;-58
2023/05/29 12:40:23;;;;;;;8.83;4.73;;;27.70;33.80;;;;;;4988113;28;20193;-58
2023/05/29 12:43:03;;;;;;;9.10;5.47;;;27.80;34.00;;;;;;4983629;28;20181;-58